Time;durP1;ratioP1;P1;durP2;ratioP2;P2;SDS_P1;SDS_P2;PMS_P1;PMS_P2;Temp;Humidity;BMP_temperature;BMP_pressure;BME280_temperature;BME280_humidity;BME280_pressure;Samples;Min_cycle;Max_cycle;Signal;HPM_P1;HPM_P2
2022/09/13 00:00:15;;;;;;;2.38;2.17;;;23.80;72.20;;;;;;5074591;28;20024;-73
2022/09/13 00:02:41;;;;;;;2.60;2.15;;;23.80;72.30;;;;;;5074396;28;20028;-74
2022/09/13 00:05:07;;;;;;;1.55;1.45;;;23.80;72.30;;;;;;5074656;28;20021;-74
2022/09/13 00:07:33;;;;;;;2.53;1.70;;;23.80;72.40;;;;;;5074749;28;20031;-73
2022/09/13 00:09:58;;;;;;;2.28;1.52;;;23.80;72.40;;;;;;5074553;28;20109;-73
2022/09/13 00:12:24;;;;;;;2.80;1.73;;;23.70;72.50;;;;;;5074456;28;20020;-73
2022/09/13 00:14:50;;;;;;;3.38;1.48;;;23.70;72.60;;;;;;5074276;28;20024;-73
2022/09/13 00:17:16;;;;;;;2.10;1.77;;;23.70;72.60;;;;;;5074193;28;20028;-73
2022/09/13 00:19:41;;;;;;;5.40;2.50;;;23.80;72.70;;;;;;5074567;28;20024;-73
2022/09/13 00:22:07;;;;;;;2.60;2.33;;;23.70;72.80;;;;;;5074174;28;20025;-74
2022/09/13 00:24:32;;;;;;;3.45;2.25;;;23.70;72.80;;;;;;5074477;28;20103;-73
2022/09/13 00:26:59;;;;;;;2.67;2.47;;;23.70;72.90;;;;;;5073851;28;20440;-74
2022/09/13 00:29:26;;;;;;;2.17;1.83;;;23.70;73.00;;;;;;5073913;28;20036;-74
2022/09/13 00:31:52;;;;;;;2.88;2.10;;;23.70;72.90;;;;;;5074422;28;20024;-74
2022/09/13 00:34:18;;;;;;;2.70;1.70;;;23.70;73.50;;;;;;5074256;28;20020;-74
2022/09/13 00:36:44;;;;;;;2.72;2.30;;;23.70;72.90;;;;;;5073875;28;20043;-74
2022/09/13 00:39:10;;;;;;;3.38;1.50;;;23.70;73.00;;;;;;5073941;28;20025;-74
2022/09/13 00:41:37;;;;;;;4.85;2.47;;;23.70;73.10;;;;;;5074143;28;20021;-74
2022/09/13 00:44:05;;;;;;;2.25;1.98;;;23.60;73.10;;;;;;5073958;28;20435;-74
2022/09/13 00:46:47;;;;;;;1.90;1.58;;;23.60;73.30;;;;;;5073811;28;20046;-75
2022/09/13 00:49:18;;;;;;;2.35;1.42;;;23.60;73.30;;;;;;5073936;28;20111;-74
2022/09/13 00:51:49;;;;;;;2.20;1.70;;;23.60;73.40;;;;;;5074021;28;20025;-74
2022/09/13 00:54:17;;;;;;;2.50;1.83;;;23.60;73.40;;;;;;5073356;28;20158;-74
2022/09/13 00:56:49;;;;;;;2.10;1.65;;;23.60;73.40;;;;;;5073742;28;20029;-75
2022/09/13 00:59:20;;;;;;;2.15;1.52;;;23.60;73.50;;;;;;5073541;28;20052;-75
2022/09/13 01:01:53;;;;;;;2.20;2.00;;;23.60;73.60;;;;;;5073602;28;20086;-74
2022/09/13 01:04:21;;;;;;;3.50;2.38;;;23.60;73.60;;;;;;5073338;28;20041;-74
2022/09/13 01:06:49;;;;;;;2.13;1.80;;;23.60;73.60;;;;;;5073404;28;20025;-74
2022/09/13 01:09:14;;;;;;;2.42;1.80;;;23.50;73.60;;;;;;5073623;28;20329;-74
2022/09/13 01:11:54;;;;;;;1.90;1.70;;;23.50;73.60;;;;;;5073449;28;20044;-74
2022/09/13 01:14:22;;;;;;;2.33;1.83;;;23.60;73.60;;;;;;5073671;28;20032;-74
2022/09/13 01:16:49;;;;;;;2.33;1.85;;;23.60;73.80;;;;;;5071362;28;20036;-74
2022/09/13 01:19:15;;;;;;;2.72;2.47;;;23.50;73.80;;;;;;5073319;28;20044;-74
2022/09/13 01:21:47;;;;;;;3.13;2.00;;;23.50;73.90;;;;;;5073490;28;20387;-74
2022/09/13 01:24:31;;;;;;;2.05;1.80;;;23.50;73.90;;;;;;5073383;28;20024;-74
2022/09/13 01:27:35;;;;;;;2.95;2.05;;;23.50;73.90;;;;;;5073111;28;20064;-75
2022/09/13 01:30:08;;;;;;;4.78;2.95;;;23.50;73.80;;;;;;5011404;28;20038;-75
2022/09/13 01:33:02;;;;;;;3.92;2.63;;;23.50;74.10;;;;;;5063590;28;20036;-75
2022/09/13 01:35:54;;;;;;;1.75;1.65;;;23.50;74.40;;;;;;5073170;28;20021;-75
2022/09/13 01:38:34;;;;;;;2.20;2.00;;;23.40;74.30;;;;;;5073444;28;20139;-74
2022/09/13 01:41:14;;;;;;;2.00;1.80;;;23.40;74.30;;;;;;5073097;28;20020;-75
2022/09/13 01:44:22;;;;;;;2.50;2.30;;;23.40;74.20;;;;;;5073343;28;20079;-74
2022/09/13 01:47:06;;;;;;;2.20;2.05;;;23.40;74.30;;;;;;5073247;28;20025;-74
2022/09/13 01:50:06;;;;;;;2.38;2.03;;;23.50;74.30;;;;;;5073060;28;20032;-74
2022/09/13 01:52:51;;;;;;;1.80;1.70;;;23.40;74.10;;;;;;5073196;28;20028;-74
2022/09/13 01:55:42;;;;;;;2.10;1.73;;;23.40;74.10;;;;;;5073220;28;20032;-74
2022/09/13 01:58:19;;;;;;;2.13;1.73;;;23.40;74.10;;;;;;5072984;28;20120;-74
2022/09/13 02:01:03;;;;;;;1.90;1.50;;;23.40;74.10;;;;;;5072956;28;20058;-74
2022/09/13 02:03:43;;;;;;;2.50;2.30;;;23.40;74.10;;;;;;5072977;28;20020;-74
2022/09/13 02:06:17;;;;;;;2.95;2.70;;;23.40;74.20;;;;;;5073072;28;20028;-75
2022/09/13 02:08:47;;;;;;;2.85;2.33;;;23.40;74.20;;;;;;5073017;28;20016;-74
2022/09/13 02:11:22;;;;;;;2.10;1.88;;;23.40;74.90;;;;;;5072925;28;20061;-75
2022/09/13 02:14:12;;;;;;;3.20;2.63;;;23.40;74.30;;;;;;5073149;28;20025;-74
2022/09/13 02:16:44;;;;;;;3.50;2.30;;;23.40;74.30;;;;;;5072728;28;20111;-74
2022/09/13 02:19:16;;;;;;;2.55;2.33;;;23.40;74.20;;;;;;5073132;28;20108;-75
2022/09/13 02:21:45;;;;;;;3.10;2.38;;;23.40;74.30;;;;;;5072681;28;20490;-75
2022/09/13 02:24:41;;;;;;;2.90;2.10;;;23.30;74.20;;;;;;5073012;28;20032;-75
2022/09/13 02:27:20;;;;;;;2.67;2.03;;;23.30;74.20;;;;;;5059924;28;20036;-74
2022/09/13 02:29:49;;;;;;;2.67;2.45;;;23.40;74.30;;;;;;5076418;28;20028;-74
2022/09/13 02:32:29;;;;;;;3.42;3.05;;;23.40;74.30;;;;;;5076107;28;20024;-75
2022/09/13 02:34:59;;;;;;;2.25;2.05;;;23.40;74.40;;;;;;5076676;28;20037;-75
2022/09/13 02:37:28;;;;;;;1.67;1.55;;;23.30;74.30;;;;;;5076131;28;20506;-75
2022/09/13 02:39:59;;;;;;;1.83;1.50;;;23.30;74.30;;;;;;5075999;28;20063;-74
2022/09/13 02:42:40;;;;;;;4.38;2.30;;;23.30;74.40;;;;;;5076018;28;20024;-75
2022/09/13 02:45:08;;;;;;;2.78;2.33;;;23.30;74.50;;;;;;5076403;28;20029;-75
2022/09/13 02:47:40;;;;;;;2.47;2.28;;;23.30;74.50;;;;;;5075915;28;20020;-75
2022/09/13 02:50:24;;;;;;;2.30;1.90;;;23.30;74.60;;;;;;5076250;28;20031;-74
2022/09/13 02:53:05;;;;;;;1.90;1.80;;;23.30;74.60;;;;;;5076224;28;20040;-74
2022/09/13 02:55:39;;;;;;;3.03;2.72;;;23.30;74.60;;;;;;5075726;28;20017;-75
2022/09/13 02:58:26;;;;;;;2.28;2.08;;;23.30;74.60;;;;;;5076133;28;20040;-74
2022/09/13 03:00:51;;;;;;;2.38;2.17;;;23.20;74.70;;;;;;5076210;28;20369;-74
2022/09/13 03:03:17;;;;;;;2.60;2.08;;;23.20;74.80;;;;;;5076104;28;20021;-74
2022/09/13 03:05:43;;;;;;;3.63;2.70;;;23.20;74.80;;;;;;5075785;28;20028;-75
2022/09/13 03:08:11;;;;;;;2.30;1.73;;;23.20;74.70;;;;;;5075627;28;20028;-75
2022/09/13 03:11:06;;;;;;;2.10;1.90;;;23.20;74.70;;;;;;5075953;28;20020;-74
2022/09/13 03:14:00;;;;;;;2.78;2.17;;;23.20;74.70;;;;;;5075954;28;20039;-74
2022/09/13 03:16:56;;;;;;;2.30;2.08;;;23.10;74.60;;;;;;5075497;28;20033;-74
2022/09/13 03:19:30;;;;;;;2.67;2.45;;;23.20;74.70;;;;;;5075791;28;20024;-74
2022/09/13 03:22:18;;;;;;;2.50;2.30;;;23.20;74.70;;;;;;5075323;28;20070;-74
2022/09/13 03:25:26;;;;;;;3.85;2.35;;;23.10;74.70;;;;;;5075692;28;20427;-74
2022/09/13 03:28:27;;;;;;;2.35;2.15;;;23.10;74.80;;;;;;5075226;28;20449;-74
2022/09/13 03:31:02;;;;;;;2.90;2.70;;;23.10;74.90;;;;;;5075368;28;20506;-75
2022/09/13 03:33:45;;;;;;;2.40;1.95;;;23.10;74.90;;;;;;5075322;28;20052;-74
2022/09/13 03:36:13;;;;;;;;;;;23.10;75.00;;;;;;5075557;28;20029;-74
2022/09/13 03:38:54;;;;;;;3.25;1.65;;;23.10;75.00;;;;;;5074759;28;19908;-75
2022/09/13 03:41:26;;;;;;;3.67;3.38;;;23.10;74.90;;;;;;5075467;28;20025;-74
2022/09/13 03:43:57;;;;;;;3.73;3.40;;;23.10;75.20;;;;;;5075189;28;20052;-74
2022/09/13 03:46:36;;;;;;;1.73;1.63;;;23.00;75.30;;;;;;5075221;28;20036;-74
2022/09/13 03:49:06;;;;;;;3.05;2.75;;;23.00;75.30;;;;;;5075200;28;20032;-74
2022/09/13 03:51:32;;;;;;;3.42;2.40;;;23.00;75.30;;;;;;5074838;28;20107;-74
2022/09/13 03:54:02;;;;;;;2.08;1.80;;;23.00;75.30;;;;;;5075183;28;20017;-75
2022/09/13 03:56:28;;;;;;;3.63;2.38;;;23.00;75.40;;;;;;5075320;28;20024;-74
2022/09/13 03:58:53;;;;;;;4.78;2.78;;;23.00;75.40;;;;;;5074874;28;20035;-74
2022/09/13 04:01:22;;;;;;;4.20;2.40;;;23.00;75.40;;;;;;5074464;28;20025;-74
2022/09/13 04:03:48;;;;;;;2.03;1.83;;;23.00;75.40;;;;;;5074628;28;20390;-74
2022/09/13 04:06:14;;;;;;;3.38;2.65;;;23.00;75.40;;;;;;5074823;28;20024;-75
2022/09/13 04:08:39;;;;;;;3.47;2.65;;;23.00;75.50;;;;;;5074877;28;20031;-74
2022/09/13 04:11:05;;;;;;;2.38;2.17;;;23.00;75.70;;;;;;5074543;28;20017;-74
2022/09/13 04:13:30;;;;;;;4.35;3.75;;;23.00;75.80;;;;;;5074533;28;20021;-74
2022/09/13 04:16:03;;;;;;;2.10;1.85;;;22.90;75.90;;;;;;5074354;28;20053;-74
2022/09/13 04:18:29;;;;;;;;;;;23.00;76.10;;;;;;5074745;28;20040;-74
2022/09/13 04:20:57;;;;;;;2.80;2.60;;;22.90;76.00;;;;;;5074559;28;19999;-73
2022/09/13 04:23:23;;;;;;;2.72;2.53;;;22.90;76.00;;;;;;5074509;28;20028;-74
2022/09/13 04:25:50;;;;;;;2.97;2.10;;;23.00;76.20;;;;;;5074332;28;20031;-74
2022/09/13 04:28:17;;;;;;;2.65;2.33;;;22.90;76.20;;;;;;5073781;28;20504;-74
2022/09/13 04:30:44;;;;;;;3.20;2.20;;;22.90;76.30;;;;;;5074001;28;20029;-73
2022/09/13 04:33:10;;;;;;;5.32;3.63;;;22.80;76.30;;;;;;5074039;28;20440;-74
2022/09/13 04:35:36;;;;;;;5.72;4.47;;;22.90;76.40;;;;;;5074239;28;20044;-74
2022/09/13 04:38:02;;;;;;;3.53;3.20;;;22.90;76.60;;;;;;5074102;28;20098;-75
2022/09/13 04:40:28;;;;;;;2.42;2.22;;;22.80;76.90;;;;;;5073769;28;20371;-75
2022/09/13 04:42:54;;;;;;;3.70;3.25;;;22.80;76.80;;;;;;5073975;28;20025;-75
2022/09/13 04:45:19;;;;;;;3.20;2.97;;;22.80;76.90;;;;;;5073870;28;20017;-72
2022/09/13 04:47:51;;;;;;;3.40;2.60;;;22.80;76.90;;;;;;5073563;28;20120;-74
2022/09/13 04:50:16;;;;;;;2.63;2.43;;;22.80;76.90;;;;;;5072783;28;20524;-74
2022/09/13 04:52:42;;;;;;;3.65;2.58;;;22.80;77.00;;;;;;5073680;28;20367;-74
2022/09/13 04:55:08;;;;;;;3.22;2.63;;;22.80;77.00;;;;;;5073708;28;20050;-73
2022/09/13 04:57:33;;;;;;;3.28;2.97;;;22.80;77.10;;;;;;5073637;28;20044;-74
2022/09/13 04:59:59;;;;;;;4.22;3.00;;;22.80;77.20;;;;;;5073569;28;20463;-75
2022/09/13 05:02:24;;;;;;;5.47;4.93;;;22.80;77.20;;;;;;5073590;28;20492;-74
2022/09/13 05:04:50;;;;;;;3.92;3.15;;;22.80;77.60;;;;;;5073908;28;20024;-74
2022/09/13 05:07:16;;;;;;;5.38;4.07;;;22.70;77.80;;;;;;5073695;28;20021;-74
2022/09/13 05:09:41;;;;;;;6.90;4.35;;;22.70;78.00;;;;;;5073729;28;20056;-74
2022/09/13 05:12:07;;;;;;;9.25;7.20;;;22.70;78.00;;;;;;5073394;28;20055;-74
2022/09/13 05:14:33;;;;;;;9.32;7.35;;;22.70;78.50;;;;;;5073408;28;20021;-74
2022/09/13 05:16:59;;;;;;;5.40;4.45;;;22.60;78.30;;;;;;5073247;28;20377;-74
2022/09/13 05:19:25;;;;;;;3.22;2.92;;;22.60;78.70;;;;;;5073590;28;20037;-74
2022/09/13 05:21:50;;;;;;;3.20;2.85;;;22.60;78.60;;;;;;5073191;28;20108;-74
2022/09/13 05:24:16;;;;;;;5.35;3.20;;;22.60;78.50;;;;;;5073442;28;20046;-74
2022/09/13 05:26:41;;;;;;;4.88;4.20;;;22.60;78.50;;;;;;5073022;28;20017;-74
2022/09/13 05:29:07;;;;;;;9.07;6.15;;;22.60;78.50;;;;;;5072916;28;20068;-73
2022/09/13 05:31:35;;;;;;;4.72;4.28;;;22.60;78.60;;;;;;5073136;28;20086;-74
2022/09/13 05:34:05;;;;;;;2.83;2.63;;;22.60;78.90;;;;;;5073423;28;20051;-73
2022/09/13 05:36:31;;;;;;;4.15;3.70;;;22.60;78.60;;;;;;5072823;28;20032;-74
2022/09/13 05:38:57;;;;;;;6.35;3.80;;;22.60;78.60;;;;;;5073146;28;20492;-74
2022/09/13 05:41:23;;;;;;;4.28;3.88;;;22.60;78.60;;;;;;5073403;28;20047;-74
2022/09/13 05:43:49;;;;;;;5.53;3.75;;;22.60;78.90;;;;;;5072771;28;20028;-74
2022/09/13 05:46:19;;;;;;;3.22;2.53;;;22.60;78.70;;;;;;5073373;28;20067;-74
2022/09/13 05:48:45;;;;;;;5.10;4.55;;;22.60;78.60;;;;;;5072843;28;20028;-74
2022/09/13 05:51:13;;;;;;;4.05;3.75;;;22.60;79.00;;;;;;5073138;28;20029;-74
2022/09/13 05:53:41;;;;;;;4.63;4.10;;;22.60;78.80;;;;;;5072963;28;20093;-74
2022/09/13 05:56:09;;;;;;;4.22;3.83;;;22.60;78.80;;;;;;5072934;28;20100;-74
2022/09/13 05:58:38;;;;;;;3.47;3.17;;;22.60;78.80;;;;;;5072676;28;20051;-75
2022/09/13 06:01:04;;;;;;;4.28;3.88;;;22.60;78.70;;;;;;5072808;28;20468;-75
2022/09/13 06:03:30;;;;;;;2.88;2.58;;;22.60;78.80;;;;;;5077109;28;20060;-73
2022/09/13 06:05:57;;;;;;;3.40;3.10;;;22.60;78.80;;;;;;5076499;28;20027;-74
2022/09/13 06:08:24;;;;;;;6.47;5.20;;;22.60;78.70;;;;;;5076628;28;20052;-74
2022/09/13 06:10:59;;;;;;;3.90;3.50;;;22.60;79.60;;;;;;5076801;28;20035;-75
2022/09/13 06:13:25;;;;;;;2.92;2.67;;;22.60;79.50;;;;;;5076592;28;20472;-75
2022/09/13 06:15:52;;;;;;;3.25;2.80;;;22.60;79.30;;;;;;5076447;28;20053;-75
2022/09/13 06:18:18;;;;;;;5.88;5.28;;;22.60;79.40;;;;;;5076264;28;20514;-75
2022/09/13 06:20:44;;;;;;;8.88;6.55;;;22.50;80.70;;;;;;5076082;28;20021;-75
2022/09/13 06:23:10;;;;;;;3.97;3.60;;;22.50;81.30;;;;;;5076243;28;20028;-75
2022/09/13 06:25:36;;;;;;;7.05;3.65;;;22.40;80.90;;;;;;5076192;28;20108;-74
2022/09/13 06:28:02;;;;;;;10.73;9.20;;;22.40;80.50;;;;;;5076162;28;20049;-74
2022/09/13 06:30:28;;;;;;;7.03;5.95;;;22.40;80.70;;;;;;5076206;28;20051;-74
2022/09/13 06:32:55;;;;;;;5.10;4.60;;;22.40;80.60;;;;;;5076318;28;20123;-74
2022/09/13 06:35:21;;;;;;;4.80;4.35;;;22.40;80.40;;;;;;5076246;28;20126;-75
2022/09/13 06:37:47;;;;;;;7.13;4.53;;;22.40;80.10;;;;;;5076177;28;20041;-74
2022/09/13 06:40:12;;;;;;;8.75;7.05;;;22.50;79.80;;;;;;5075804;28;20058;-74
2022/09/13 06:42:38;;;;;;;4.47;4.07;;;22.50;80.00;;;;;;5075985;28;20112;-74
2022/09/13 06:45:05;;;;;;;4.82;4.32;;;22.60;79.90;;;;;;5075855;28;20025;-74
2022/09/13 06:47:31;;;;;;;4.28;3.88;;;22.60;79.70;;;;;;5076112;28;20024;-75
2022/09/13 06:49:57;;;;;;;6.88;6.00;;;22.70;79.40;;;;;;5076065;28;20403;-75
2022/09/13 06:52:23;;;;;;;8.15;5.85;;;22.70;79.20;;;;;;5075886;28;20103;-74
2022/09/13 06:54:49;;;;;;;10.43;7.10;;;22.80;79.30;;;;;;5075843;28;20424;-74
2022/09/13 06:57:15;;;;;;;10.27;8.32;;;22.80;79.50;;;;;;5075726;28;20041;-74
2022/09/13 06:59:40;;;;;;;16.27;10.52;;;22.70;79.90;;;;;;5075905;28;20368;-74
2022/09/13 07:02:06;;;;;;;8.93;6.20;;;22.70;80.30;;;;;;5075925;28;20367;-73
2022/09/13 07:04:32;;;;;;;11.52;9.88;;;22.60;80.00;;;;;;5075812;28;20028;-74
2022/09/13 07:06:58;;;;;;;12.45;9.48;;;22.70;80.20;;;;;;5075060;28;20089;-74
2022/09/13 07:09:24;;;;;;;7.88;5.90;;;22.70;80.60;;;;;;5075386;28;20025;-74
2022/09/13 07:11:52;;;;;;;12.23;8.52;;;22.70;80.60;;;;;;5075872;28;20035;-74
2022/09/13 07:14:21;;;;;;;14.02;10.80;;;22.70;80.30;;;;;;5075039;28;20095;-74
2022/09/13 07:16:46;;;;;;;17.35;11.60;;;22.70;80.50;;;;;;5075458;28;20093;-74
2022/09/13 07:19:18;;;;;;;13.77;10.48;;;22.70;80.70;;;;;;5075461;28;20028;-74
2022/09/13 07:21:45;;;;;;;10.35;9.20;;;22.70;81.10;;;;;;5075108;28;20024;-74
2022/09/13 07:24:11;;;;;;;7.65;5.20;;;22.70;80.90;;;;;;5075570;28;20072;-74
2022/09/13 07:26:37;;;;;;;12.02;8.88;;;22.70;80.80;;;;;;5075310;28;20044;-74
2022/09/13 07:29:06;;;;;;;20.90;14.60;;;22.80;81.00;;;;;;5075025;28;20072;-74
2022/09/13 07:31:34;;;;;;;10.63;8.60;;;22.80;82.20;;;;;;5075262;28;20089;-75
2022/09/13 07:34:03;;;;;;;11.98;8.52;;;22.80;82.40;;;;;;5075077;28;20039;-74
2022/09/13 07:36:30;;;;;;;12.35;9.10;;;22.80;82.00;;;;;;5074728;28;20021;-74
2022/09/13 07:38:57;;;;;;;20.00;15.15;;;22.80;83.00;;;;;;5075266;28;20059;-73
2022/09/13 07:41:25;;;;;;;14.27;11.88;;;22.80;83.80;;;;;;5075316;28;20474;-74
2022/09/13 07:43:51;;;;;;;22.38;13.52;;;22.80;83.70;;;;;;5074784;28;20055;-74
2022/09/13 07:46:22;;;;;;;16.17;12.60;;;22.90;84.20;;;;;;5074971;28;20078;-74
2022/09/13 07:48:50;;;;;;;9.90;7.32;;;22.90;84.90;;;;;;5075125;28;20029;-74
2022/09/13 07:51:19;;;;;;;17.63;11.88;;;22.90;84.60;;;;;;5074487;28;20376;-74
2022/09/13 07:53:46;;;;;;;12.77;10.32;;;23.00;84.90;;;;;;5074758;28;20032;-74
2022/09/13 07:56:21;;;;;;;13.35;9.65;;;23.00;85.00;;;;;;5074757;28;20051;-74
2022/09/13 07:58:48;;;;;;;10.75;7.63;;;23.10;85.30;;;;;;5074596;28;20502;-74
2022/09/13 08:01:20;;;;;;;10.07;7.07;;;23.10;85.20;;;;;;5074813;28;20048;-74
2022/09/13 08:03:55;;;;;;;11.45;7.10;;;23.20;85.60;;;;;;5074359;28;20075;-74
2022/09/13 08:06:21;;;;;;;12.32;8.70;;;23.30;85.40;;;;;;5074511;28;20067;-75
2022/09/13 08:08:47;;;;;;;10.38;5.47;;;23.30;87.10;;;;;;5074505;28;20032;-75
2022/09/13 08:11:20;;;;;;;7.57;5.18;;;23.30;86.90;;;;;;5074370;28;20028;-75
2022/09/13 08:13:46;;;;;;;;;;;23.30;86.60;;;;;;5074476;28;20498;-75
2022/09/13 08:16:12;;;;;;;9.65;5.20;;;23.30;88.50;;;;;;5074053;28;19904;-75
2022/09/13 08:18:43;;;;;;;7.07;3.47;;;23.30;89.00;;;;;;5074170;28;20044;-75
2022/09/13 08:21:08;;;;;;;3.03;1.60;;;23.20;88.90;;;;;;5074271;28;20025;-74
2022/09/13 08:23:34;;;;;;;5.18;3.38;;;23.20;88.40;;;;;;5074244;28;20040;-75
2022/09/13 08:26:01;;;;;;;6.60;3.25;;;23.20;89.60;;;;;;5074033;28;20020;-75
2022/09/13 08:28:27;;;;;;;7.40;3.92;;;23.10;89.90;;;;;;5073677;28;20056;-75
2022/09/13 08:30:53;;;;;;;6.10;4.15;;;23.10;90.00;;;;;;5073873;28;20043;-75
2022/09/13 08:33:19;;;;;;;7.38;4.93;;;23.20;89.70;;;;;;5074279;28;20027;-75
2022/09/13 08:35:51;;;;;;;6.60;5.10;;;23.20;89.60;;;;;;5073914;28;20036;-75
2022/09/13 08:38:18;;;;;;;9.52;5.93;;;23.20;89.00;;;;;;5073943;28;20036;-75
2022/09/13 08:40:50;;;;;;;8.02;5.78;;;23.30;89.00;;;;;;5073424;28;20375;-75
2022/09/13 08:43:24;;;;;;;12.75;10.13;;;23.30;88.70;;;;;;5073474;28;20052;-75
2022/09/13 08:45:55;;;;;;;12.15;8.85;;;23.20;90.00;;;;;;5073372;28;20025;-74
2022/09/13 08:48:30;;;;;;;11.20;7.22;;;23.10;90.00;;;;;;5073838;28;20430;-74
2022/09/13 08:51:01;;;;;;;11.25;7.25;;;23.20;89.70;;;;;;5073293;28;20411;-74
2022/09/13 08:53:29;;;;;;;10.27;7.47;;;23.20;89.30;;;;;;5073462;28;20024;-74
2022/09/13 08:56:00;;;;;;;7.15;4.55;;;23.20;88.70;;;;;;5073461;28;20143;-74
2022/09/13 08:58:35;;;;;;;15.88;10.48;;;23.30;87.90;;;;;;5073671;28;20028;-74
2022/09/13 09:01:38;;;;;;;13.25;10.18;;;23.40;89.00;;;;;;5073428;28;20024;-74
2022/09/13 09:04:24;;;;;;;12.27;8.98;;;23.40;89.00;;;;;;5073251;28;20024;-74
2022/09/13 09:06:56;;;;;;;6.53;5.80;;;23.30;89.80;;;;;;5073443;28;20025;-74
2022/09/13 09:09:21;;;;;;;13.18;10.45;;;23.20;89.30;;;;;;5073598;28;20024;-74
2022/09/13 09:11:58;;;;;;;8.57;6.82;;;23.20;89.60;;;;;;5073206;28;20457;-74
2022/09/13 09:14:35;;;;;;;13.10;9.63;;;23.30;89.30;;;;;;5073190;28;20028;-75
2022/09/13 09:17:17;;;;;;;12.50;8.68;;;23.30;90.00;;;;;;5072817;28;20041;-73
2022/09/13 09:19:49;;;;;;;11.98;8.35;;;23.30;90.00;;;;;;5073488;28;20025;-74
2022/09/13 09:22:23;;;;;;;10.10;8.80;;;23.20;90.00;;;;;;5073624;28;20086;-74
2022/09/13 09:24:55;;;;;;;5.53;4.43;;;23.20;90.10;;;;;;5072912;28;20476;-74
2022/09/13 09:27:21;;;;;;;;;;;23.20;89.70;;;;;;5073361;28;20044;-74
2022/09/13 09:29:50;;;;;;;12.82;7.03;;;23.30;89.00;;;;;;5073281;28;19935;-75
2022/09/13 09:32:35;;;;;;;10.02;6.75;;;23.30;89.80;;;;;;5072913;28;20025;-74
2022/09/13 09:35:11;;;;;;;7.13;5.70;;;23.30;89.60;;;;;;5072910;28;20039;-74
2022/09/13 09:37:42;;;;;;;7.85;6.07;;;23.30;89.70;;;;;;5072731;28;20028;-74
2022/09/13 09:40:16;;;;;;;5.40;4.15;;;23.20;90.10;;;;;;5073067;28;20495;-75
2022/09/13 09:42:45;;;;;;;7.18;3.95;;;23.20;89.60;;;;;;5073023;28;20033;-75
2022/09/13 09:45:37;;;;;;;7.28;5.10;;;23.20;89.60;;;;;;5072685;28;20479;-74
2022/09/13 09:48:13;;;;;;;6.18;4.45;;;23.20;89.20;;;;;;5072356;28;20036;-75
2022/09/13 09:50:46;;;;;;;7.95;4.70;;;23.20;89.20;;;;;;5072618;28;20035;-75
2022/09/13 09:53:27;;;;;;;6.00;3.28;;;23.20;89.90;;;;;;5072567;28;20029;-74
2022/09/13 09:56:05;;;;;;;5.75;3.67;;;23.10;89.60;;;;;;5073149;28;20040;-75
2022/09/13 09:58:36;;;;;;;5.22;3.70;;;23.20;90.00;;;;;;5073032;28;20113;-74
2022/09/13 10:01:04;;;;;;;5.15;3.45;;;23.10;89.80;;;;;;5072844;28;20044;-74
2022/09/13 10:03:32;;;;;;;5.50;3.35;;;23.10;89.90;;;;;;5072978;28;20024;-74
2022/09/13 10:06:07;;;;;;;4.72;2.22;;;23.10;90.00;;;;;;5072869;28;20024;-75
2022/09/13 10:08:36;;;;;;;5.70;2.67;;;23.20;89.60;;;;;;5072203;28;20066;-75
2022/09/13 10:11:02;;;;;;;3.30;2.60;;;23.30;89.60;;;;;;5072116;28;20032;-75
2022/09/13 10:13:29;;;;;;;3.97;2.35;;;23.40;89.30;;;;;;5072274;28;20108;-75
2022/09/13 10:16:02;;;;;;;4.47;2.90;;;23.40;88.60;;;;;;5072793;28;20032;-75
2022/09/13 10:18:35;;;;;;;2.58;2.38;;;23.40;88.60;;;;;;5072906;28;20088;-75
2022/09/13 10:21:05;;;;;;;3.65;1.95;;;23.30;88.90;;;;;;5072830;28;20048;-75
2022/09/13 10:23:33;;;;;;;5.90;4.15;;;23.30;88.50;;;;;;5072764;28;20021;-75
2022/09/13 10:26:06;;;;;;;5.40;3.17;;;23.20;90.10;;;;;;5072314;28;20024;-75
2022/09/13 10:28:35;;;;;;;6.97;3.60;;;23.20;90.30;;;;;;5072200;28;20049;-75
2022/09/13 10:31:05;;;;;;;2.80;2.00;;;23.20;90.30;;;;;;5072652;28;20104;-75
2022/09/13 10:33:34;;;;;;;2.85;1.83;;;23.10;90.10;;;;;;5072502;28;20051;-75
2022/09/13 10:36:10;;;;;;;1.98;1.55;;;23.20;89.80;;;;;;5072309;28;20044;-75
2022/09/13 10:38:38;;;;;;;3.88;2.20;;;23.20;89.10;;;;;;5072085;28;20490;-74
2022/09/13 10:41:09;;;;;;;2.33;1.48;;;23.30;88.90;;;;;;5072496;28;20025;-74
2022/09/13 10:43:35;;;;;;;2.65;1.70;;;23.40;88.90;;;;;;5072517;28;20392;-75
2022/09/13 10:46:04;;;;;;;3.40;2.20;;;23.40;88.50;;;;;;5072588;28;20029;-75
2022/09/13 10:48:42;;;;;;;3.05;2.00;;;23.30;88.70;;;;;;5072963;28;20025;-75
2022/09/13 10:51:26;;;;;;;4.47;1.73;;;23.40;88.80;;;;;;5075987;28;20028;-75
2022/09/13 10:54:18;;;;;;;1.85;1.30;;;23.40;89.20;;;;;;5076191;28;20024;-74
2022/09/13 10:56:45;;;;;;;4.10;1.50;;;23.50;88.80;;;;;;5075849;28;20067;-74
2022/09/13 10:59:22;;;;;;;1.42;1.02;;;23.60;88.60;;;;;;5076155;28;20108;-74
2022/09/13 11:02:21;;;;;;;3.60;1.13;;;23.60;88.30;;;;;;5076103;28;20107;-74
2022/09/13 11:04:59;;;;;;;2.50;1.40;;;23.70;88.00;;;;;;5075667;28;20020;-74
2022/09/13 11:07:36;;;;;;;3.03;1.10;;;23.90;87.90;;;;;;5075960;28;20432;-74
2022/09/13 11:10:24;;;;;;;2.60;1.10;;;24.10;88.00;;;;;;5075935;28;20029;-74
2022/09/13 11:12:52;;;;;;;2.00;1.20;;;24.20;86.20;;;;;;5075371;28;20027;-74
2022/09/13 11:15:46;;;;;;;3.58;0.90;;;24.20;86.10;;;;;;5074640;28;20028;-74
2022/09/13 11:18:14;;;;;;;2.38;0.70;;;24.10;86.60;;;;;;5075103;28;20086;-74
2022/09/13 11:21:06;;;;;;;3.40;1.05;;;24.10;86.20;;;;;;5075137;28;20016;-74
2022/09/13 11:24:01;;;;;;;3.77;0.80;;;24.00;86.40;;;;;;5074726;28;20052;-74
2022/09/13 11:27:03;;;;;;;2.55;0.63;;;24.10;86.00;;;;;;5037355;28;20358;-74
2022/09/13 11:29:43;;;;;;;3.28;0.70;;;24.20;86.00;;;;;;5043462;28;20056;-74
2022/09/13 11:32:37;;;;;;;1.33;0.38;;;24.40;85.40;;;;;;5075520;28;20109;-74
2022/09/13 11:35:20;;;;;;;2.30;0.40;;;24.50;84.00;;;;;;5075102;28;20395;-74
2022/09/13 11:37:56;;;;;;;1.52;0.50;;;24.60;82.90;;;;;;5074894;28;20032;-74
2022/09/13 11:40:41;;;;;;;1.65;0.52;;;24.60;82.90;;;;;;5075443;28;20047;-74
2022/09/13 11:43:57;;;;;;;2.88;0.73;;;24.50;82.20;;;;;;5074922;28;20034;-74
2022/09/13 11:47:01;;;;;;;3.90;0.40;;;24.50;82.50;;;;;;5041077;28;20043;-74
2022/09/13 11:50:09;;;;;;;2.30;0.20;;;24.50;82.50;;;;;;5051609;28;20087;-74
2022/09/13 11:52:41;;;;;;;1.15;0.30;;;24.60;82.30;;;;;;5063914;28;20060;-74
2022/09/13 11:55:24;;;;;;;1.83;0.30;;;24.60;81.90;;;;;;5075148;28;20023;-75
2022/09/13 11:57:57;;;;;;;1.60;0.40;;;24.60;82.50;;;;;;5074701;28;20060;-74
2022/09/13 12:00:33;;;;;;;3.05;0.40;;;24.50;82.30;;;;;;5074383;28;20112;-74
2022/09/13 12:03:25;;;;;;;2.08;0.30;;;24.50;82.30;;;;;;5074549;28;20023;-75
2022/09/13 12:05:55;;;;;;;2.67;0.30;;;24.50;82.60;;;;;;5068841;28;20032;-74
2022/09/13 12:08:38;;;;;;;1.00;0.25;;;24.50;81.70;;;;;;5074719;28;20115;-74
2022/09/13 12:11:17;;;;;;;;;;;24.50;81.40;;;;;;5075022;28;20048;-74
2022/09/13 12:13:48;;;;;;;3.08;0.30;;;24.60;81.30;;;;;;5074139;28;19904;-74
2022/09/13 12:16:24;;;;;;;1.42;0.35;;;24.60;80.90;;;;;;5074602;28;20098;-75
2022/09/13 12:18:52;;;;;;;1.77;0.30;;;24.50;80.80;;;;;;5073210;28;20089;-75
2022/09/13 12:21:39;;;;;;;2.00;0.57;;;24.40;81.00;;;;;;5072514;28;20021;-75
2022/09/13 12:24:38;;;;;;;1.00;0.30;;;24.40;81.30;;;;;;5072016;28;20521;-75
2022/09/13 12:27:10;;;;;;;1.10;0.50;;;24.40;81.40;;;;;;5073259;28;20368;-74
2022/09/13 12:30:03;;;;;;;1.67;0.20;;;24.50;81.90;;;;;;5073822;28;20429;-75
2022/09/13 12:32:30;;;;;;;1.02;0.20;;;24.60;81.40;;;;;;5073683;28;20086;-75
2022/09/13 12:35:00;;;;;;;1.98;0.20;;;24.70;81.90;;;;;;5074059;28;20028;-75
2022/09/13 12:37:38;;;;;;;1.65;0.22;;;24.80;81.50;;;;;;5074067;28;20036;-75
2022/09/13 12:40:37;;;;;;;1.13;0.28;;;24.90;80.60;;;;;;5073889;28;20029;-75
2022/09/13 12:43:37;;;;;;;2.65;0.25;;;25.10;80.30;;;;;;5073978;28;20024;-74
2022/09/13 12:46:14;;;;;;;1.30;0.20;;;25.30;80.20;;;;;;5074196;28;20440;-74
2022/09/13 12:48:49;;;;;;;2.03;0.50;;;25.30;80.20;;;;;;5073704;28;20050;-74
2022/09/13 12:51:40;;;;;;;1.00;0.30;;;25.50;79.40;;;;;;5073676;28;20081;-75
2022/09/13 12:54:27;;;;;;;0.88;0.20;;;25.70;78.60;;;;;;5073888;28;20419;-75
2022/09/13 12:57:03;;;;;;;4.32;0.45;;;25.90;76.00;;;;;;5073871;28;20074;-75
2022/09/13 12:59:54;;;;;;;2.20;0.20;;;26.00;76.30;;;;;;5073689;28;20116;-75
2022/09/13 13:02:42;;;;;;;2.22;0.20;;;26.00;76.20;;;;;;5073343;28;20051;-75
2022/09/13 13:05:29;;;;;;;1.52;0.28;;;26.10;75.20;;;;;;5073445;28;20029;-75
2022/09/13 13:08:17;;;;;;;1.45;0.32;;;26.30;74.70;;;;;;5073683;28;20113;-75
2022/09/13 13:10:43;;;;;;;0.60;0.20;;;26.30;73.40;;;;;;5072897;28;20529;-75
2022/09/13 13:13:29;;;;;;;0.80;0.22;;;26.30;73.60;;;;;;5073093;28;20028;-75
2022/09/13 13:15:58;;;;;;;2.33;0.32;;;26.30;73.40;;;;;;5073207;28;20476;-75